sensor_id;sensor_type;location;lat;lon;timestamp;P1;durP1;ratioP1;P2;durP2;ratioP2
14770;SDS011;7477;45.222;5.688;2023-07-20T00:00:05;4.28;;;2.65;;
14770;SDS011;7477;45.222;5.688;2023-07-20T00:03:25;3.33;;;2.33;;
14770;SDS011;7477;45.222;5.688;2023-07-20T00:06:44;3.03;;;2.72;;
14770;SDS011;7477;45.222;5.688;2023-07-20T00:10:04;4.38;;;2.92;;
14770;SDS011;7477;45.222;5.688;2023-07-20T00:13:24;4.13;;;2.58;;
14770;SDS011;7477;45.222;5.688;2023-07-20T00:16:44;4.65;;;3.00;;
14770;SDS011;7477;45.222;5.688;2023-07-20T00:20:05;6.78;;;2.70;;
14770;SDS011;7477;45.222;5.688;2023-07-20T00:23:26;4.10;;;2.70;;
14770;SDS011;7477;45.222;5.688;2023-07-20T00:26:45;3.67;;;3.33;;
14770;SDS011;7477;45.222;5.688;2023-07-20T00:30:04;2.88;;;2.60;;
14770;SDS011;7477;45.222;5.688;2023-07-20T00:33:24;5.18;;;3.13;;
14770;SDS011;7477;45.222;5.688;2023-07-20T00:36:44;4.78;;;2.65;;
14770;SDS011;7477;45.222;5.688;2023-07-20T00:40:03;3.65;;;2.47;;
14770;SDS011;7477;45.222;5.688;2023-07-20T00:43:23;3.22;;;2.70;;
14770;SDS011;7477;45.222;5.688;2023-07-20T00:46:42;4.32;;;2.70;;
14770;SDS011;7477;45.222;5.688;2023-07-20T00:50:02;3.97;;;2.88;;
14770;SDS011;7477;45.222;5.688;2023-07-20T00:53:23;3.92;;;2.72;;
14770;SDS011;7477;45.222;5.688;2023-07-20T00:56:43;4.45;;;2.50;;
14770;SDS011;7477;45.222;5.688;2023-07-20T01:00:03;4.53;;;3.20;;
14770;SDS011;7477;45.222;5.688;2023-07-20T01:03:23;4.20;;;3.00;;
14770;SDS011;7477;45.222;5.688;2023-07-20T01:06:47;5.43;;;3.42;;
14770;SDS011;7477;45.222;5.688;2023-07-20T01:13:43;3.85;;;2.92;;
14770;SDS011;7477;45.222;5.688;2023-07-20T01:17:03;4.47;;;2.50;;
14770;SDS011;7477;45.222;5.688;2023-07-20T01:20:23;3.78;;;2.90;;
14770;SDS011;7477;45.222;5.688;2023-07-20T01:23:50;4.43;;;3.10;;
14770;SDS011;7477;45.222;5.688;2023-07-20T01:34:44;3.55;;;2.90;;
14770;SDS011;7477;45.222;5.688;2023-07-20T01:38:07;4.78;;;2.92;;
14770;SDS011;7477;45.222;5.688;2023-07-20T01:41:27;3.13;;;2.80;;
14770;SDS011;7477;45.222;5.688;2023-07-20T01:44:47;4.00;;;3.00;;
14770;SDS011;7477;45.222;5.688;2023-07-20T01:48:06;4.00;;;3.15;;
14770;SDS011;7477;45.222;5.688;2023-07-20T01:51:25;3.17;;;2.70;;
14770;SDS011;7477;45.222;5.688;2023-07-20T01:54:44;4.70;;;3.15;;
14770;SDS011;7477;45.222;5.688;2023-07-20T01:58:04;4.32;;;3.33;;
14770;SDS011;7477;45.222;5.688;2023-07-20T02:01:24;5.28;;;3.10;;
14770;SDS011;7477;45.222;5.688;2023-07-20T02:04:43;5.63;;;2.85;;
14770;SDS011;7477;45.222;5.688;2023-07-20T02:08:03;5.53;;;2.97;;
14770;SDS011;7477;45.222;5.688;2023-07-20T02:11:22;5.18;;;2.90;;
14770;SDS011;7477;45.222;5.688;2023-07-20T02:14:41;4.85;;;2.55;;
14770;SDS011;7477;45.222;5.688;2023-07-20T02:18:01;4.20;;;3.17;;
14770;SDS011;7477;45.222;5.688;2023-07-20T02:21:22;6.32;;;3.03;;
14770;SDS011;7477;45.222;5.688;2023-07-20T02:24:41;5.60;;;2.97;;
14770;SDS011;7477;45.222;5.688;2023-07-20T02:28:00;7.32;;;2.90;;
14770;SDS011;7477;45.222;5.688;2023-07-20T02:31:19;5.15;;;2.92;;
14770;SDS011;7477;45.222;5.688;2023-07-20T02:34:38;4.72;;;2.83;;
14770;SDS011;7477;45.222;5.688;2023-07-20T02:37:58;4.07;;;2.70;;
14770;SDS011;7477;45.222;5.688;2023-07-20T02:41:17;3.72;;;2.58;;
14770;SDS011;7477;45.222;5.688;2023-07-20T02:44:36;3.55;;;2.72;;
14770;SDS011;7477;45.222;5.688;2023-07-20T02:47:55;5.90;;;2.70;;
14770;SDS011;7477;45.222;5.688;2023-07-20T02:51:14;5.28;;;2.63;;
14770;SDS011;7477;45.222;5.688;2023-07-20T02:54:33;3.92;;;2.53;;
14770;SDS011;7477;45.222;5.688;2023-07-20T02:57:52;5.65;;;2.55;;
14770;SDS011;7477;45.222;5.688;2023-07-20T03:01:11;3.80;;;2.85;;
14770;SDS011;7477;45.222;5.688;2023-07-20T03:04:31;2.60;;;2.40;;
14770;SDS011;7477;45.222;5.688;2023-07-20T03:07:49;3.95;;;2.90;;
14770;SDS011;7477;45.222;5.688;2023-07-20T03:11:09;4.10;;;2.78;;
14770;SDS011;7477;45.222;5.688;2023-07-20T03:14:28;3.25;;;2.70;;
14770;SDS011;7477;45.222;5.688;2023-07-20T03:17:47;6.07;;;2.83;;
14770;SDS011;7477;45.222;5.688;2023-07-20T03:21:07;5.18;;;2.85;;
14770;SDS011;7477;45.222;5.688;2023-07-20T03:24:27;3.08;;;2.60;;
14770;SDS011;7477;45.222;5.688;2023-07-20T03:27:46;4.03;;;2.70;;
14770;SDS011;7477;45.222;5.688;2023-07-20T03:31:05;3.22;;;2.47;;
14770;SDS011;7477;45.222;5.688;2023-07-20T03:34:24;3.78;;;2.60;;
14770;SDS011;7477;45.222;5.688;2023-07-20T03:37:44;3.08;;;2.75;;
14770;SDS011;7477;45.222;5.688;2023-07-20T03:41:03;3.30;;;2.40;;
14770;SDS011;7477;45.222;5.688;2023-07-20T03:44:23;2.83;;;2.55;;
14770;SDS011;7477;45.222;5.688;2023-07-20T03:47:42;3.65;;;2.72;;
14770;SDS011;7477;45.222;5.688;2023-07-20T03:51:03;3.72;;;2.55;;
14770;SDS011;7477;45.222;5.688;2023-07-20T03:54:23;4.20;;;2.90;;
14770;SDS011;7477;45.222;5.688;2023-07-20T03:57:42;7.20;;;3.33;;
14770;SDS011;7477;45.222;5.688;2023-07-20T04:01:02;2.97;;;2.60;;
14770;SDS011;7477;45.222;5.688;2023-07-20T04:04:21;4.18;;;2.85;;
14770;SDS011;7477;45.222;5.688;2023-07-20T04:07:40;5.65;;;3.10;;
14770;SDS011;7477;45.222;5.688;2023-07-20T04:11:01;3.65;;;2.60;;
14770;SDS011;7477;45.222;5.688;2023-07-20T04:14:20;4.47;;;3.00;;
14770;SDS011;7477;45.222;5.688;2023-07-20T04:17:40;3.10;;;2.50;;
14770;SDS011;7477;45.222;5.688;2023-07-20T04:20:59;4.00;;;3.00;;
14770;SDS011;7477;45.222;5.688;2023-07-20T04:24:18;4.22;;;2.90;;
14770;SDS011;7477;45.222;5.688;2023-07-20T04:27:37;3.30;;;3.00;;
14770;SDS011;7477;45.222;5.688;2023-07-20T04:31:08;3.58;;;3.15;;
14770;SDS011;7477;45.222;5.688;2023-07-20T04:34:31;5.03;;;2.85;;
14770;SDS011;7477;45.222;5.688;2023-07-20T04:37:50;3.38;;;2.78;;
14770;SDS011;7477;45.222;5.688;2023-07-20T04:41:10;3.60;;;2.80;;
14770;SDS011;7477;45.222;5.688;2023-07-20T04:44:30;3.65;;;2.83;;
14770;SDS011;7477;45.222;5.688;2023-07-20T04:47:49;3.83;;;2.30;;
14770;SDS011;7477;45.222;5.688;2023-07-20T04:51:10;3.97;;;2.53;;
14770;SDS011;7477;45.222;5.688;2023-07-20T04:54:29;5.28;;;2.80;;
14770;SDS011;7477;45.222;5.688;2023-07-20T04:57:48;3.58;;;2.58;;
14770;SDS011;7477;45.222;5.688;2023-07-20T05:01:07;4.93;;;2.72;;
14770;SDS011;7477;45.222;5.688;2023-07-20T05:04:27;3.45;;;2.50;;
14770;SDS011;7477;45.222;5.688;2023-07-20T05:07:46;6.43;;;3.20;;
14770;SDS011;7477;45.222;5.688;2023-07-20T05:11:06;5.68;;;3.00;;
14770;SDS011;7477;45.222;5.688;2023-07-20T05:14:26;3.67;;;2.85;;
14770;SDS011;7477;45.222;5.688;2023-07-20T05:17:45;4.97;;;3.10;;
14770;SDS011;7477;45.222;5.688;2023-07-20T05:21:05;5.03;;;3.05;;
14770;SDS011;7477;45.222;5.688;2023-07-20T05:24:25;4.82;;;3.22;;
14770;SDS011;7477;45.222;5.688;2023-07-20T05:27:45;4.38;;;2.97;;
14770;SDS011;7477;45.222;5.688;2023-07-20T05:31:05;3.83;;;2.88;;
14770;SDS011;7477;45.222;5.688;2023-07-20T05:34:25;3.97;;;3.10;;
14770;SDS011;7477;45.222;5.688;2023-07-20T05:37:44;4.95;;;2.90;;
14770;SDS011;7477;45.222;5.688;2023-07-20T05:41:04;7.60;;;3.30;;
14770;SDS011;7477;45.222;5.688;2023-07-20T05:44:23;4.63;;;2.80;;
14770;SDS011;7477;45.222;5.688;2023-07-20T05:47:42;3.38;;;2.40;;
14770;SDS011;7477;45.222;5.688;2023-07-20T05:51:02;3.85;;;2.83;;
14770;SDS011;7477;45.222;5.688;2023-07-20T05:54:21;4.25;;;2.97;;
14770;SDS011;7477;45.222;5.688;2023-07-20T05:57:43;5.68;;;2.85;;
14770;SDS011;7477;45.222;5.688;2023-07-20T06:01:03;4.47;;;3.03;;
14770;SDS011;7477;45.222;5.688;2023-07-20T06:04:24;5.00;;;3.20;;
14770;SDS011;7477;45.222;5.688;2023-07-20T06:07:43;4.38;;;2.88;;
14770;SDS011;7477;45.222;5.688;2023-07-20T06:11:02;3.67;;;3.13;;
14770;SDS011;7477;45.222;5.688;2023-07-20T06:14:22;6.45;;;2.60;;
14770;SDS011;7477;45.222;5.688;2023-07-20T06:17:41;5.45;;;3.13;;
14770;SDS011;7477;45.222;5.688;2023-07-20T06:21:00;8.15;;;3.00;;
14770;SDS011;7477;45.222;5.688;2023-07-20T06:24:19;10.45;;;3.00;;
14770;SDS011;7477;45.222;5.688;2023-07-20T06:27:38;5.18;;;3.30;;
14770;SDS011;7477;45.222;5.688;2023-07-20T06:31:00;6.38;;;3.00;;
14770;SDS011;7477;45.222;5.688;2023-07-20T06:34:20;3.63;;;2.80;;
14770;SDS011;7477;45.222;5.688;2023-07-20T06:37:39;3.85;;;2.55;;
14770;SDS011;7477;45.222;5.688;2023-07-20T06:40:58;3.50;;;2.67;;
14770;SDS011;7477;45.222;5.688;2023-07-20T06:44:17;5.13;;;2.80;;
14770;SDS011;7477;45.222;5.688;2023-07-20T06:47:40;6.07;;;2.50;;
14770;SDS011;7477;45.222;5.688;2023-07-20T06:50:59;5.78;;;3.22;;
14770;SDS011;7477;45.222;5.688;2023-07-20T06:54:18;6.97;;;4.00;;
14770;SDS011;7477;45.222;5.688;2023-07-20T06:57:38;4.88;;;3.55;;
14770;SDS011;7477;45.222;5.688;2023-07-20T07:00:57;4.60;;;3.28;;
14770;SDS011;7477;45.222;5.688;2023-07-20T07:04:16;4.57;;;3.20;;
14770;SDS011;7477;45.222;5.688;2023-07-20T07:07:35;6.28;;;4.15;;
14770;SDS011;7477;45.222;5.688;2023-07-20T07:10:55;6.50;;;3.75;;
14770;SDS011;7477;45.222;5.688;2023-07-20T07:14:14;6.65;;;3.08;;
14770;SDS011;7477;45.222;5.688;2023-07-20T07:17:33;4.90;;;3.15;;
14770;SDS011;7477;45.222;5.688;2023-07-20T07:20:54;5.22;;;2.85;;
14770;SDS011;7477;45.222;5.688;2023-07-20T07:24:13;5.93;;;2.92;;
14770;SDS011;7477;45.222;5.688;2023-07-20T07:27:32;3.33;;;2.60;;
14770;SDS011;7477;45.222;5.688;2023-07-20T07:30:51;3.47;;;2.70;;
14770;SDS011;7477;45.222;5.688;2023-07-20T07:34:11;4.10;;;2.75;;
14770;SDS011;7477;45.222;5.688;2023-07-20T07:37:30;3.63;;;2.53;;
14770;SDS011;7477;45.222;5.688;2023-07-20T07:40:49;3.72;;;2.70;;
14770;SDS011;7477;45.222;5.688;2023-07-20T07:44:08;4.30;;;2.63;;
14770;SDS011;7477;45.222;5.688;2023-07-20T07:47:27;3.67;;;2.67;;
14770;SDS011;7477;45.222;5.688;2023-07-20T07:50:47;4.43;;;3.15;;
14770;SDS011;7477;45.222;5.688;2023-07-20T07:54:08;3.85;;;2.90;;
14770;SDS011;7477;45.222;5.688;2023-07-20T07:57:28;3.28;;;2.90;;
14770;SDS011;7477;45.222;5.688;2023-07-20T08:00:47;4.25;;;2.70;;
14770;SDS011;7477;45.222;5.688;2023-07-20T08:04:06;4.93;;;3.20;;
14770;SDS011;7477;45.222;5.688;2023-07-20T08:07:25;3.08;;;2.17;;
14770;SDS011;7477;45.222;5.688;2023-07-20T08:10:45;3.00;;;2.40;;
14770;SDS011;7477;45.222;5.688;2023-07-20T08:14:04;4.93;;;2.67;;
14770;SDS011;7477;45.222;5.688;2023-07-20T08:17:23;4.45;;;2.80;;
14770;SDS011;7477;45.222;5.688;2023-07-20T08:20:43;3.05;;;2.60;;
14770;SDS011;7477;45.222;5.688;2023-07-20T08:24:03;8.05;;;2.90;;
14770;SDS011;7477;45.222;5.688;2023-07-20T08:27:22;7.57;;;4.03;;
14770;SDS011;7477;45.222;5.688;2023-07-20T08:30:44;7.50;;;4.15;;
14770;SDS011;7477;45.222;5.688;2023-07-20T08:34:05;7.07;;;3.78;;
14770;SDS011;7477;45.222;5.688;2023-07-20T08:37:24;8.45;;;4.20;;
14770;SDS011;7477;45.222;5.688;2023-07-20T08:40:44;5.32;;;2.80;;
14770;SDS011;7477;45.222;5.688;2023-07-20T08:44:04;6.53;;;3.55;;
14770;SDS011;7477;45.222;5.688;2023-07-20T08:47:24;5.43;;;2.50;;
14770;SDS011;7477;45.222;5.688;2023-07-20T08:50:44;5.03;;;2.40;;
14770;SDS011;7477;45.222;5.688;2023-07-20T08:54:06;4.07;;;2.40;;
14770;SDS011;7477;45.222;5.688;2023-07-20T08:57:27;2.92;;;2.28;;
14770;SDS011;7477;45.222;5.688;2023-07-20T09:00:47;3.40;;;2.65;;
14770;SDS011;7477;45.222;5.688;2023-07-20T09:04:09;5.97;;;2.30;;
14770;SDS011;7477;45.222;5.688;2023-07-20T09:07:29;4.15;;;2.03;;
14770;SDS011;7477;45.222;5.688;2023-07-20T09:10:48;2.85;;;1.98;;
14770;SDS011;7477;45.222;5.688;2023-07-20T09:14:08;2.47;;;2.22;;
14770;SDS011;7477;45.222;5.688;2023-07-20T09:17:29;2.25;;;2.05;;
14770;SDS011;7477;45.222;5.688;2023-07-20T09:20:48;4.68;;;2.30;;
14770;SDS011;7477;45.222;5.688;2023-07-20T09:24:07;4.03;;;2.28;;
14770;SDS011;7477;45.222;5.688;2023-07-20T09:27:38;3.65;;;2.13;;
14770;SDS011;7477;45.222;5.688;2023-07-20T09:30:59;2.75;;;1.73;;
14770;SDS011;7477;45.222;5.688;2023-07-20T09:34:36;7.55;;;2.13;;
14770;SDS011;7477;45.222;5.688;2023-07-20T09:37:58;3.33;;;1.92;;
14770;SDS011;7477;45.222;5.688;2023-07-20T09:41:19;2.67;;;2.22;;
14770;SDS011;7477;45.222;5.688;2023-07-20T09:44:39;3.65;;;1.98;;
14770;SDS011;7477;45.222;5.688;2023-07-20T09:48:06;4.82;;;2.30;;
14770;SDS011;7477;45.222;5.688;2023-07-20T09:51:26;5.80;;;2.00;;
14770;SDS011;7477;45.222;5.688;2023-07-20T09:54:46;3.28;;;1.95;;
14770;SDS011;7477;45.222;5.688;2023-07-20T09:58:06;2.65;;;1.90;;
14770;SDS011;7477;45.222;5.688;2023-07-20T10:01:27;2.47;;;1.88;;
14770;SDS011;7477;45.222;5.688;2023-07-20T10:04:50;5.18;;;2.17;;
14770;SDS011;7477;45.222;5.688;2023-07-20T10:08:12;3.67;;;1.70;;
14770;SDS011;7477;45.222;5.688;2023-07-20T10:11:35;2.20;;;1.83;;
14770;SDS011;7477;45.222;5.688;2023-07-20T10:22:14;6.20;;;1.92;;
14770;SDS011;7477;45.222;5.688;2023-07-20T10:25:43;3.38;;;2.65;;
14770;SDS011;7477;45.222;5.688;2023-07-20T10:29:04;5.55;;;2.03;;
14770;SDS011;7477;45.222;5.688;2023-07-20T10:32:25;2.28;;;1.77;;
14770;SDS011;7477;45.222;5.688;2023-07-20T10:35:51;3.25;;;1.80;;
14770;SDS011;7477;45.222;5.688;2023-07-20T10:39:24;2.95;;;2.10;;
14770;SDS011;7477;45.222;5.688;2023-07-20T10:42:47;2.90;;;2.00;;
14770;SDS011;7477;45.222;5.688;2023-07-20T10:46:06;3.88;;;2.10;;
14770;SDS011;7477;45.222;5.688;2023-07-20T10:49:26;2.22;;;1.92;;
14770;SDS011;7477;45.222;5.688;2023-07-20T10:52:49;2.97;;;2.17;;
14770;SDS011;7477;45.222;5.688;2023-07-20T10:56:27;3.25;;;1.90;;
14770;SDS011;7477;45.222;5.688;2023-07-20T10:59:50;3.30;;;1.73;;
14770;SDS011;7477;45.222;5.688;2023-07-20T11:03:10;2.72;;;1.65;;
14770;SDS011;7477;45.222;5.688;2023-07-20T11:06:46;5.00;;;2.10;;
14770;SDS011;7477;45.222;5.688;2023-07-20T11:10:13;3.17;;;2.15;;
14770;SDS011;7477;45.222;5.688;2023-07-20T11:13:33;2.20;;;2.00;;
14770;SDS011;7477;45.222;5.688;2023-07-20T11:16:53;2.40;;;2.20;;
14770;SDS011;7477;45.222;5.688;2023-07-20T11:20:14;4.65;;;2.00;;
14770;SDS011;7477;45.222;5.688;2023-07-20T11:23:34;2.67;;;2.08;;
14770;SDS011;7477;45.222;5.688;2023-07-20T11:26:57;2.10;;;1.90;;
14770;SDS011;7477;45.222;5.688;2023-07-20T11:30:16;4.30;;;2.20;;
14770;SDS011;7477;45.222;5.688;2023-07-20T11:33:35;4.65;;;2.67;;
14770;SDS011;7477;45.222;5.688;2023-07-20T11:36:56;2.30;;;2.10;;
14770;SDS011;7477;45.222;5.688;2023-07-20T11:40:15;2.78;;;2.00;;
14770;SDS011;7477;45.222;5.688;2023-07-20T11:43:35;3.97;;;2.03;;
14770;SDS011;7477;45.222;5.688;2023-07-20T11:46:59;3.88;;;2.38;;
14770;SDS011;7477;45.222;5.688;2023-07-20T11:50:21;5.22;;;2.65;;
14770;SDS011;7477;45.222;5.688;2023-07-20T11:53:41;3.72;;;2.33;;
14770;SDS011;7477;45.222;5.688;2023-07-20T11:57:01;2.20;;;2.03;;
14770;SDS011;7477;45.222;5.688;2023-07-20T12:00:24;2.92;;;2.17;;
14770;SDS011;7477;45.222;5.688;2023-07-20T12:03:43;3.83;;;2.10;;
14770;SDS011;7477;45.222;5.688;2023-07-20T12:07:03;3.28;;;2.13;;
14770;SDS011;7477;45.222;5.688;2023-07-20T12:10:26;2.97;;;2.25;;
14770;SDS011;7477;45.222;5.688;2023-07-20T12:13:49;4.00;;;1.98;;
14770;SDS011;7477;45.222;5.688;2023-07-20T12:17:09;4.43;;;2.17;;
14770;SDS011;7477;45.222;5.688;2023-07-20T12:23:56;1.90;;;1.67;;
14770;SDS011;7477;45.222;5.688;2023-07-20T12:27:16;2.65;;;2.25;;
14770;SDS011;7477;45.222;5.688;2023-07-20T12:30:36;3.35;;;2.22;;
14770;SDS011;7477;45.222;5.688;2023-07-20T12:33:59;3.75;;;2.00;;
14770;SDS011;7477;45.222;5.688;2023-07-20T12:37:18;5.30;;;2.20;;
14770;SDS011;7477;45.222;5.688;2023-07-20T12:40:37;2.85;;;2.20;;
14770;SDS011;7477;45.222;5.688;2023-07-20T12:43:56;3.97;;;2.00;;
14770;SDS011;7477;45.222;5.688;2023-07-20T12:47:17;3.30;;;2.28;;
14770;SDS011;7477;45.222;5.688;2023-07-20T12:50:36;2.33;;;1.80;;
14770;SDS011;7477;45.222;5.688;2023-07-20T12:53:56;3.40;;;2.10;;
14770;SDS011;7477;45.222;5.688;2023-07-20T12:57:15;3.60;;;2.42;;
14770;SDS011;7477;45.222;5.688;2023-07-20T13:00:34;4.03;;;2.33;;
14770;SDS011;7477;45.222;5.688;2023-07-20T13:03:54;3.70;;;2.42;;
14770;SDS011;7477;45.222;5.688;2023-07-20T13:07:13;2.30;;;1.85;;
14770;SDS011;7477;45.222;5.688;2023-07-20T13:10:32;2.08;;;1.88;;
14770;SDS011;7477;45.222;5.688;2023-07-20T13:13:52;2.10;;;1.85;;
14770;SDS011;7477;45.222;5.688;2023-07-20T13:17:11;6.15;;;2.03;;
14770;SDS011;7477;45.222;5.688;2023-07-20T13:20:30;2.10;;;1.90;;
14770;SDS011;7477;45.222;5.688;2023-07-20T13:23:49;6.28;;;2.13;;
14770;SDS011;7477;45.222;5.688;2023-07-20T13:27:08;2.80;;;1.80;;
14770;SDS011;7477;45.222;5.688;2023-07-20T13:30:27;2.33;;;1.92;;
14770;SDS011;7477;45.222;5.688;2023-07-20T13:33:47;4.53;;;2.10;;
14770;SDS011;7477;45.222;5.688;2023-07-20T13:37:06;3.97;;;2.22;;
14770;SDS011;7477;45.222;5.688;2023-07-20T13:40:25;5.15;;;2.30;;
14770;SDS011;7477;45.222;5.688;2023-07-20T13:43:44;7.40;;;2.50;;
14770;SDS011;7477;45.222;5.688;2023-07-20T13:47:04;2.30;;;2.10;;
14770;SDS011;7477;45.222;5.688;2023-07-20T13:50:24;4.63;;;1.90;;
14770;SDS011;7477;45.222;5.688;2023-07-20T13:53:45;4.50;;;2.40;;
14770;SDS011;7477;45.222;5.688;2023-07-20T13:57:06;3.95;;;2.42;;
14770;SDS011;7477;45.222;5.688;2023-07-20T14:00:25;2.83;;;2.20;;
14770;SDS011;7477;45.222;5.688;2023-07-20T14:03:49;4.43;;;2.10;;
14770;SDS011;7477;45.222;5.688;2023-07-20T14:07:08;1.98;;;1.73;;
14770;SDS011;7477;45.222;5.688;2023-07-20T14:10:28;12.32;;;3.35;;
14770;SDS011;7477;45.222;5.688;2023-07-20T14:13:47;2.95;;;2.28;;
14770;SDS011;7477;45.222;5.688;2023-07-20T14:17:06;3.88;;;2.55;;
14770;SDS011;7477;45.222;5.688;2023-07-20T14:20:26;2.45;;;2.20;;
14770;SDS011;7477;45.222;5.688;2023-07-20T14:23:45;2.60;;;1.80;;
14770;SDS011;7477;45.222;5.688;2023-07-20T14:27:06;7.10;;;2.67;;
14770;SDS011;7477;45.222;5.688;2023-07-20T14:30:25;3.10;;;2.10;;
14770;SDS011;7477;45.222;5.688;2023-07-20T14:33:45;2.83;;;2.08;;
14770;SDS011;7477;45.222;5.688;2023-07-20T14:37:04;3.05;;;2.03;;
14770;SDS011;7477;45.222;5.688;2023-07-20T14:40:24;3.78;;;2.20;;
14770;SDS011;7477;45.222;5.688;2023-07-20T14:43:43;2.75;;;2.15;;
14770;SDS011;7477;45.222;5.688;2023-07-20T14:47:02;3.85;;;2.13;;
14770;SDS011;7477;45.222;5.688;2023-07-20T14:50:22;4.10;;;2.33;;
14770;SDS011;7477;45.222;5.688;2023-07-20T14:53:42;2.80;;;1.95;;
14770;SDS011;7477;45.222;5.688;2023-07-20T14:57:01;2.45;;;2.08;;
14770;SDS011;7477;45.222;5.688;2023-07-20T15:00:21;4.18;;;2.17;;
14770;SDS011;7477;45.222;5.688;2023-07-20T15:03:40;2.60;;;1.90;;
14770;SDS011;7477;45.222;5.688;2023-07-20T15:07:00;5.47;;;1.83;;
14770;SDS011;7477;45.222;5.688;2023-07-20T15:10:19;5.03;;;2.10;;
14770;SDS011;7477;45.222;5.688;2023-07-20T15:13:39;2.92;;;2.00;;
14770;SDS011;7477;45.222;5.688;2023-07-20T15:17:01;2.65;;;2.03;;
14770;SDS011;7477;45.222;5.688;2023-07-20T15:20:21;2.45;;;1.95;;
14770;SDS011;7477;45.222;5.688;2023-07-20T15:23:40;2.17;;;1.98;;
14770;SDS011;7477;45.222;5.688;2023-07-20T15:26:59;3.53;;;2.25;;
14770;SDS011;7477;45.222;5.688;2023-07-20T15:30:19;2.63;;;2.22;;
14770;SDS011;7477;45.222;5.688;2023-07-20T15:33:38;2.92;;;2.13;;
14770;SDS011;7477;45.222;5.688;2023-07-20T15:36:58;3.13;;;2.15;;
14770;SDS011;7477;45.222;5.688;2023-07-20T15:40:17;2.45;;;1.98;;
14770;SDS011;7477;45.222;5.688;2023-07-20T15:43:36;2.85;;;2.22;;
14770;SDS011;7477;45.222;5.688;2023-07-20T15:46:55;3.33;;;2.05;;
14770;SDS011;7477;45.222;5.688;2023-07-20T15:50:15;2.25;;;2.05;;
14770;SDS011;7477;45.222;5.688;2023-07-20T15:53:34;4.13;;;2.35;;
14770;SDS011;7477;45.222;5.688;2023-07-20T15:56:55;3.63;;;1.90;;
14770;SDS011;7477;45.222;5.688;2023-07-20T16:00:15;3.97;;;2.28;;
14770;SDS011;7477;45.222;5.688;2023-07-20T16:03:34;2.83;;;2.25;;
14770;SDS011;7477;45.222;5.688;2023-07-20T16:06:53;2.10;;;1.90;;
14770;SDS011;7477;45.222;5.688;2023-07-20T16:10:13;3.85;;;2.17;;
14770;SDS011;7477;45.222;5.688;2023-07-20T16:13:32;3.25;;;2.22;;
14770;SDS011;7477;45.222;5.688;2023-07-20T16:16:51;5.80;;;2.05;;
14770;SDS011;7477;45.222;5.688;2023-07-20T16:20:11;2.00;;;1.80;;
14770;SDS011;7477;45.222;5.688;2023-07-20T16:23:31;2.85;;;1.90;;
14770;SDS011;7477;45.222;5.688;2023-07-20T16:26:50;3.72;;;1.90;;
14770;SDS011;7477;45.222;5.688;2023-07-20T16:30:09;2.70;;;2.13;;
14770;SDS011;7477;45.222;5.688;2023-07-20T16:33:30;3.10;;;1.90;;
14770;SDS011;7477;45.222;5.688;2023-07-20T16:36:49;1.90;;;1.70;;
14770;SDS011;7477;45.222;5.688;2023-07-20T16:40:08;2.85;;;2.03;;
14770;SDS011;7477;45.222;5.688;2023-07-20T16:43:30;3.20;;;2.10;;
14770;SDS011;7477;45.222;5.688;2023-07-20T16:46:49;1.88;;;1.77;;
14770;SDS011;7477;45.222;5.688;2023-07-20T16:50:08;2.17;;;1.77;;
14770;SDS011;7477;45.222;5.688;2023-07-20T16:53:29;1.85;;;1.70;;
14770;SDS011;7477;45.222;5.688;2023-07-20T16:56:48;2.28;;;1.70;;
14770;SDS011;7477;45.222;5.688;2023-07-20T17:00:07;2.08;;;1.88;;
14770;SDS011;7477;45.222;5.688;2023-07-20T17:03:29;2.65;;;1.85;;
14770;SDS011;7477;45.222;5.688;2023-07-20T17:06:49;4.88;;;1.95;;
14770;SDS011;7477;45.222;5.688;2023-07-20T17:10:09;4.30;;;2.00;;
14770;SDS011;7477;45.222;5.688;2023-07-20T17:13:29;1.80;;;1.70;;
14770;SDS011;7477;45.222;5.688;2023-07-20T17:16:51;3.72;;;2.08;;
14770;SDS011;7477;45.222;5.688;2023-07-20T17:20:10;2.75;;;2.15;;
14770;SDS011;7477;45.222;5.688;2023-07-20T17:23:31;2.47;;;2.10;;
14770;SDS011;7477;45.222;5.688;2023-07-20T17:26:51;4.20;;;1.88;;
14770;SDS011;7477;45.222;5.688;2023-07-20T17:30:10;2.60;;;1.77;;
14770;SDS011;7477;45.222;5.688;2023-07-20T17:33:30;4.35;;;2.50;;
14770;SDS011;7477;45.222;5.688;2023-07-20T17:36:49;3.78;;;1.80;;
14770;SDS011;7477;45.222;5.688;2023-07-20T17:40:09;3.83;;;1.65;;
14770;SDS011;7477;45.222;5.688;2023-07-20T17:43:29;5.07;;;2.30;;
14770;SDS011;7477;45.222;5.688;2023-07-20T17:46:49;4.07;;;1.90;;
14770;SDS011;7477;45.222;5.688;2023-07-20T17:50:09;2.20;;;1.98;;
14770;SDS011;7477;45.222;5.688;2023-07-20T17:53:33;2.65;;;1.88;;
14770;SDS011;7477;45.222;5.688;2023-07-20T17:56:52;5.50;;;3.20;;
14770;SDS011;7477;45.222;5.688;2023-07-20T18:00:11;3.88;;;3.00;;
14770;SDS011;7477;45.222;5.688;2023-07-20T18:03:31;2.22;;;2.03;;
14770;SDS011;7477;45.222;5.688;2023-07-20T18:06:51;2.05;;;1.80;;
14770;SDS011;7477;45.222;5.688;2023-07-20T18:10:10;2.78;;;2.00;;
14770;SDS011;7477;45.222;5.688;2023-07-20T18:13:30;2.25;;;2.05;;
14770;SDS011;7477;45.222;5.688;2023-07-20T18:16:49;3.92;;;1.90;;
14770;SDS011;7477;45.222;5.688;2023-07-20T18:20:09;4.13;;;1.80;;
14770;SDS011;7477;45.222;5.688;2023-07-20T18:23:28;5.18;;;1.80;;
14770;SDS011;7477;45.222;5.688;2023-07-20T18:26:47;2.35;;;1.80;;
14770;SDS011;7477;45.222;5.688;2023-07-20T18:30:07;3.00;;;1.65;;
14770;SDS011;7477;45.222;5.688;2023-07-20T18:33:26;1.65;;;1.48;;
14770;SDS011;7477;45.222;5.688;2023-07-20T18:36:46;2.78;;;1.92;;
14770;SDS011;7477;45.222;5.688;2023-07-20T18:40:06;3.40;;;2.28;;
14770;SDS011;7477;45.222;5.688;2023-07-20T18:43:26;2.95;;;2.30;;
14770;SDS011;7477;45.222;5.688;2023-07-20T18:46:45;4.90;;;2.22;;
14770;SDS011;7477;45.222;5.688;2023-07-20T18:50:06;6.15;;;3.10;;
14770;SDS011;7477;45.222;5.688;2023-07-20T18:53:25;3.13;;;1.90;;
14770;SDS011;7477;45.222;5.688;2023-07-20T18:56:44;3.30;;;1.88;;
14770;SDS011;7477;45.222;5.688;2023-07-20T19:00:03;2.15;;;1.73;;
14770;SDS011;7477;45.222;5.688;2023-07-20T19:03:25;2.88;;;1.92;;
14770;SDS011;7477;45.222;5.688;2023-07-20T19:06:46;2.17;;;1.88;;
14770;SDS011;7477;45.222;5.688;2023-07-20T19:10:06;1.60;;;1.45;;
14770;SDS011;7477;45.222;5.688;2023-07-20T19:13:26;5.57;;;1.80;;
14770;SDS011;7477;45.222;5.688;2023-07-20T19:16:45;3.70;;;2.17;;
14770;SDS011;7477;45.222;5.688;2023-07-20T19:20:04;3.13;;;1.90;;
14770;SDS011;7477;45.222;5.688;2023-07-20T19:23:26;2.70;;;1.92;;
14770;SDS011;7477;45.222;5.688;2023-07-20T19:26:45;4.07;;;2.15;;
14770;SDS011;7477;45.222;5.688;2023-07-20T19:30:04;4.15;;;2.50;;
14770;SDS011;7477;45.222;5.688;2023-07-20T19:33:24;3.47;;;2.30;;
14770;SDS011;7477;45.222;5.688;2023-07-20T19:36:43;3.50;;;2.40;;
14770;SDS011;7477;45.222;5.688;2023-07-20T19:40:03;3.92;;;2.45;;
14770;SDS011;7477;45.222;5.688;2023-07-20T19:43:23;4.00;;;2.40;;
14770;SDS011;7477;45.222;5.688;2023-07-20T19:46:43;2.70;;;2.30;;
14770;SDS011;7477;45.222;5.688;2023-07-20T19:50:03;3.83;;;2.05;;
14770;SDS011;7477;45.222;5.688;2023-07-20T19:53:23;2.28;;;1.60;;
14770;SDS011;7477;45.222;5.688;2023-07-20T19:56:43;3.03;;;1.90;;
14770;SDS011;7477;45.222;5.688;2023-07-20T20:00:02;2.25;;;2.05;;
14770;SDS011;7477;45.222;5.688;2023-07-20T20:03:26;2.25;;;2.05;;
14770;SDS011;7477;45.222;5.688;2023-07-20T20:06:46;2.53;;;2.15;;
14770;SDS011;7477;45.222;5.688;2023-07-20T20:10:09;3.28;;;2.20;;
14770;SDS011;7477;45.222;5.688;2023-07-20T20:13:28;5.60;;;2.50;;
14770;SDS011;7477;45.222;5.688;2023-07-20T20:16:49;4.53;;;1.92;;
14770;SDS011;7477;45.222;5.688;2023-07-20T20:20:09;2.53;;;2.00;;
14770;SDS011;7477;45.222;5.688;2023-07-20T20:23:30;2.83;;;2.08;;
14770;SDS011;7477;45.222;5.688;2023-07-20T20:26:49;2.30;;;2.10;;
14770;SDS011;7477;45.222;5.688;2023-07-20T20:30:08;2.95;;;1.92;;
14770;SDS011;7477;45.222;5.688;2023-07-20T20:33:28;2.78;;;2.58;;
14770;SDS011;7477;45.222;5.688;2023-07-20T20:36:47;3.85;;;2.22;;
14770;SDS011;7477;45.222;5.688;2023-07-20T20:40:06;3.13;;;2.08;;
14770;SDS011;7477;45.222;5.688;2023-07-20T20:43:26;2.15;;;1.95;;